createdAt,value
2023-02-09T00:00:08.605Z,-2.90
2023-02-09T00:02:35.299Z,-2.90
2023-02-09T00:05:01.921Z,-2.90
2023-02-09T00:07:28.524Z,-2.80
2023-02-09T00:09:55.191Z,-2.80
2023-02-09T00:12:40.258Z,-2.80
2023-02-09T00:15:07.360Z,-2.80
2023-02-09T00:17:35.790Z,-2.90
2023-02-09T00:20:05.944Z,-2.90
2023-02-09T00:22:32.621Z,-2.90
2023-02-09T00:24:59.319Z,-2.90
2023-02-09T00:27:25.964Z,-2.90
2023-02-09T00:29:52.842Z,-2.90
2023-02-09T00:32:19.485Z,-2.90
2023-02-09T00:34:46.135Z,-2.90
2023-02-09T00:37:13.016Z,-3.00
2023-02-09T00:39:39.652Z,-3.00
2023-02-09T00:42:06.289Z,-3.00
2023-02-09T00:44:37.242Z,-3.00
2023-02-09T00:47:04.130Z,-3.10
2023-02-09T00:49:30.798Z,-3.00
2023-02-09T00:51:57.419Z,-3.00
2023-02-09T00:54:24.080Z,-3.10
2023-02-09T00:56:50.733Z,-3.10
2023-02-09T00:59:17.395Z,-3.10
2023-02-09T01:01:44.079Z,-3.10
2023-02-09T01:04:10.728Z,-3.00
2023-02-09T01:06:37.404Z,-3.10
2023-02-09T01:09:04.411Z,-3.10
2023-02-09T01:11:31.144Z,-3.20
2023-02-09T01:13:58.484Z,-3.30
2023-02-09T01:16:28.772Z,-3.30
2023-02-09T01:18:56.035Z,-3.30
2023-02-09T01:21:22.812Z,-3.40
2023-02-09T01:23:49.752Z,-3.40
2023-02-09T01:26:16.547Z,-3.40
2023-02-09T01:28:43.319Z,-3.50
2023-02-09T01:31:30.441Z,-3.50
2023-02-09T01:33:58.054Z,-3.60
2023-02-09T01:36:24.686Z,-3.60
2023-02-09T01:38:51.359Z,-3.50
2023-02-09T01:41:18.225Z,-3.40
2023-02-09T01:43:52.766Z,-3.40
2023-02-09T01:46:19.723Z,-3.40
2023-02-09T01:48:46.595Z,-3.40
2023-02-09T01:51:13.240Z,-3.30
2023-02-09T01:53:39.926Z,-3.30
2023-02-09T01:56:08.318Z,-3.30
2023-02-09T01:58:35.162Z,-3.30
2023-02-09T02:01:01.812Z,-3.40
2023-02-09T02:03:28.504Z,-3.40
2023-02-09T02:06:02.228Z,-3.40
2023-02-09T02:08:56.509Z,-3.40
2023-02-09T02:11:23.693Z,-3.40
2023-02-09T02:13:50.318Z,-3.40
2023-02-09T02:16:26.714Z,-3.30
2023-02-09T02:19:08.911Z,-3.30
2023-02-09T02:21:44.681Z,-3.30
2023-02-09T02:24:32.506Z,-3.30
2023-02-09T02:27:00.968Z,-3.30
2023-02-09T02:30:03.824Z,-3.30
2023-02-09T02:33:00.125Z,-3.30
2023-02-09T02:35:41.792Z,-3.30
2023-02-09T02:38:18.859Z,-3.30
2023-02-09T02:41:03.929Z,-3.30
2023-02-09T02:43:42.413Z,-3.30
2023-02-09T02:46:44.837Z,-3.40
2023-02-09T02:49:34.548Z,-3.50
2023-02-09T02:52:03.844Z,-3.50
2023-02-09T02:54:37.693Z,-3.50
2023-02-09T02:57:05.443Z,-3.50
2023-02-09T02:59:35.078Z,-3.50
2023-02-09T03:02:17.444Z,-3.50
2023-02-09T03:04:44.079Z,-3.60
2023-02-09T03:07:10.768Z,-3.50
2023-02-09T03:09:37.411Z,-3.60
2023-02-09T03:12:15.647Z,-3.60
2023-02-09T03:15:14.624Z,-3.70
2023-02-09T03:18:01.598Z,-3.70
2023-02-09T03:20:42.823Z,-3.70
2023-02-09T03:23:14.599Z,-3.70
2023-02-09T03:25:43.743Z,-3.60
2023-02-09T03:28:36.887Z,-3.60
2023-02-09T03:31:03.925Z,-3.60
2023-02-09T03:33:32.177Z,-3.70
2023-02-09T03:36:00.598Z,-3.70
2023-02-09T03:38:27.383Z,-3.70
2023-02-09T03:40:54.455Z,-3.80
2023-02-09T03:43:21.135Z,-3.80
2023-02-09T03:45:47.822Z,-3.80
2023-02-09T03:48:14.441Z,-3.80
2023-02-09T03:50:41.338Z,-3.90
2023-02-09T03:53:07.966Z,-3.90
2023-02-09T03:55:34.624Z,-3.80
2023-02-09T03:58:01.263Z,-3.80
2023-02-09T04:00:27.976Z,-3.80
2023-02-09T04:02:54.784Z,-3.80
2023-02-09T04:05:23.084Z,-3.80
2023-02-09T04:07:50.127Z,-3.70
2023-02-09T04:10:17.011Z,-3.80
2023-02-09T04:12:43.879Z,-3.70
2023-02-09T04:15:10.642Z,-3.80
2023-02-09T04:17:37.305Z,-3.80
2023-02-09T04:20:04.346Z,-3.80
2023-02-09T04:22:31.066Z,-3.80
2023-02-09T04:24:57.714Z,-3.80
2023-02-09T04:27:24.377Z,-3.80
2023-02-09T04:29:51.012Z,-3.80
2023-02-09T04:32:17.668Z,-3.80
2023-02-09T04:34:44.301Z,-3.80
2023-02-09T04:37:10.928Z,-3.80
2023-02-09T04:39:37.823Z,-3.80
2023-02-09T04:42:04.513Z,-3.80
2023-02-09T04:44:31.135Z,-3.80
2023-02-09T04:46:57.755Z,-3.80
2023-02-09T04:49:24.356Z,-3.80
2023-02-09T04:51:50.994Z,-3.90
2023-02-09T04:54:17.604Z,-3.90
2023-02-09T04:56:44.233Z,-3.80
2023-02-09T04:59:29.229Z,-3.80
2023-02-09T05:01:55.848Z,-3.80
2023-02-09T05:04:22.443Z,-3.80
2023-02-09T05:06:49.132Z,-3.80
2023-02-09T05:09:15.763Z,-3.80
2023-02-09T05:11:42.377Z,-3.80
2023-02-09T05:14:09.009Z,-3.90
2023-02-09T05:16:37.589Z,-4.00
2023-02-09T05:19:05.760Z,-4.00
2023-02-09T05:21:35.632Z,-4.00
2023-02-09T05:24:02.414Z,-4.00
2023-02-09T05:26:29.201Z,-4.00
2023-02-09T05:28:55.840Z,-4.10
2023-02-09T05:31:22.631Z,-4.10
2023-02-09T05:33:49.318Z,-4.10
2023-02-09T05:36:15.963Z,-4.10
2023-02-09T05:38:42.596Z,-4.10
2023-02-09T05:41:10.730Z,-4.20
2023-02-09T05:43:37.378Z,-4.20
2023-02-09T05:46:07.012Z,-4.20
2023-02-09T05:48:34.816Z,-4.30
2023-02-09T05:51:01.556Z,-4.30
2023-02-09T05:53:28.181Z,-4.30
2023-02-09T05:55:55.080Z,-4.30
2023-02-09T05:58:21.728Z,-4.30
2023-02-09T06:00:48.357Z,-4.30
2023-02-09T06:03:15.017Z,-4.30
2023-02-09T06:05:44.801Z,-4.40
2023-02-09T06:08:11.416Z,-4.30
2023-02-09T06:10:38.068Z,-4.40
2023-02-09T06:13:04.695Z,-4.30
2023-02-09T06:15:31.603Z,-4.30
2023-02-09T06:17:58.469Z,-4.30
2023-02-09T06:20:25.140Z,-4.40
2023-02-09T06:22:52.027Z,-4.30
2023-02-09T06:25:18.708Z,-4.30
2023-02-09T06:27:45.504Z,-4.40
2023-02-09T06:30:12.608Z,-4.40
2023-02-09T06:32:40.439Z,-4.40
2023-02-09T06:35:07.133Z,-4.40
2023-02-09T06:37:34.060Z,-4.40
2023-02-09T06:40:00.663Z,-4.30
2023-02-09T06:42:44.113Z,-4.30
2023-02-09T06:45:12.704Z,-4.20
2023-02-09T06:47:43.521Z,-4.10
2023-02-09T06:50:11.355Z,-3.60
2023-02-09T06:52:38.188Z,-3.30
2023-02-09T06:55:05.451Z,-3.40
2023-02-09T06:57:32.233Z,-3.60
2023-02-09T06:59:59.108Z,-3.70
2023-02-09T07:02:26.039Z,-3.80
2023-02-09T07:04:52.945Z,-3.80
2023-02-09T07:07:19.828Z,-3.60
2023-02-09T07:09:46.457Z,-3.60
2023-02-09T07:12:13.088Z,-3.60
2023-02-09T07:14:39.704Z,-3.60
2023-02-09T07:17:06.482Z,-3.50
2023-02-09T07:19:33.121Z,-3.50
2023-02-09T07:21:59.753Z,-3.50
2023-02-09T07:24:26.623Z,-3.50
2023-02-09T07:26:53.642Z,-3.40
2023-02-09T07:29:20.279Z,-3.20
2023-02-09T07:31:47.018Z,-3.00
2023-02-09T07:34:13.744Z,-2.90
2023-02-09T07:36:40.383Z,-2.90
2023-02-09T07:39:07.227Z,-2.70
2023-02-09T07:41:33.939Z,-2.60
2023-02-09T07:44:00.566Z,-2.50
2023-02-09T07:46:27.273Z,-2.30
2023-02-09T07:48:53.961Z,-2.10
2023-02-09T07:51:25.351Z,-1.80
2023-02-09T07:53:56.079Z,-1.50
2023-02-09T07:56:23.265Z,-1.20
2023-02-09T07:58:50.007Z,-1.10
2023-02-09T08:01:17.129Z,-0.80
2023-02-09T08:03:45.569Z,-0.70
2023-02-09T08:06:30.338Z,-0.80
2023-02-09T08:09:03.225Z,-0.60
2023-02-09T08:11:34.203Z,-0.30
2023-02-09T08:14:03.245Z,-0.40
2023-02-09T08:16:30.596Z,-0.40
2023-02-09T08:19:06.071Z,-0.40
2023-02-09T08:21:35.044Z,-0.60
2023-02-09T08:24:01.720Z,-0.60
2023-02-09T08:26:28.354Z,-0.60
2023-02-09T08:28:55.078Z,-0.40
2023-02-09T08:31:22.238Z,-0.30
2023-02-09T08:33:49.839Z,-0.10
2023-02-09T08:36:17.345Z,0.10
2023-02-09T08:38:44.629Z,0.00
2023-02-09T08:41:12.892Z,-0.20
2023-02-09T08:43:39.570Z,-0.20
2023-02-09T08:46:10.901Z,-0.10
2023-02-09T08:48:39.852Z,0.00
2023-02-09T08:51:06.998Z,0.00
2023-02-09T08:53:33.667Z,0.10
2023-02-09T08:56:00.338Z,0.10
2023-02-09T08:58:27.068Z,0.20
2023-02-09T09:00:57.073Z,0.30
2023-02-09T09:03:29.797Z,0.30
2023-02-09T09:06:06.624Z,0.50
2023-02-09T09:08:34.141Z,0.40
2023-02-09T09:11:00.758Z,0.50
2023-02-09T09:13:28.095Z,0.50
2023-02-09T09:15:57.843Z,0.60
2023-02-09T09:18:25.258Z,0.50
2023-02-09T09:20:52.273Z,0.50
2023-02-09T09:23:18.984Z,0.40
2023-02-09T09:25:45.981Z,0.50
2023-02-09T09:28:12.839Z,0.30
2023-02-09T09:30:39.486Z,0.20
2023-02-09T09:33:06.203Z,0.20
2023-02-09T09:35:33.280Z,0.40
2023-02-09T09:38:00.843Z,0.60
2023-02-09T09:40:29.366Z,0.60
2023-02-09T09:42:57.527Z,0.60
2023-02-09T09:45:25.732Z,0.70
2023-02-09T09:47:52.716Z,0.70
2023-02-09T09:50:36.856Z,0.70
2023-02-09T09:53:07.180Z,1.00
2023-02-09T09:55:33.844Z,0.90
2023-02-09T09:58:03.112Z,1.00
2023-02-09T10:00:38.303Z,1.10
2023-02-09T10:03:11.833Z,1.10
2023-02-09T10:05:39.080Z,1.30
2023-02-09T10:08:10.603Z,1.40
2023-02-09T10:10:58.366Z,1.60
2023-02-09T10:13:48.133Z,1.90
2023-02-09T10:16:20.600Z,2.00
2023-02-09T10:18:51.677Z,2.10
2023-02-09T10:21:18.717Z,2.10
2023-02-09T10:23:47.830Z,2.20
2023-02-09T10:26:26.153Z,2.30
2023-02-09T10:28:54.768Z,2.30
2023-02-09T10:31:43.555Z,2.30
2023-02-09T10:34:15.770Z,2.40
2023-02-09T10:37:17.587Z,2.60
2023-02-09T10:39:44.504Z,2.80
2023-02-09T10:42:35.559Z,2.90
2023-02-09T10:45:14.178Z,3.00
2023-02-09T10:47:40.818Z,3.10
2023-02-09T10:50:17.552Z,3.20
2023-02-09T10:53:01.207Z,3.30
2023-02-09T10:55:39.063Z,3.00
2023-02-09T10:58:08.733Z,2.90
2023-02-09T11:00:45.842Z,2.70
2023-02-09T11:03:17.652Z,2.80
2023-02-09T11:05:45.506Z,2.90
2023-02-09T11:08:22.392Z,2.80
2023-02-09T11:11:05.102Z,3.10
2023-02-09T11:13:32.566Z,3.10
2023-02-09T11:16:01.901Z,3.20
2023-02-09T11:18:30.214Z,3.30
2023-02-09T11:21:14.153Z,3.30
2023-02-09T11:23:52.451Z,3.40
2023-02-09T11:26:30.937Z,3.40
2023-02-09T11:29:09.315Z,3.40
2023-02-09T11:31:39.770Z,3.40
2023-02-09T11:34:53.765Z,3.50
2023-02-09T11:37:44.416Z,3.50
2023-02-09T11:40:17.361Z,3.50
2023-02-09T11:42:49.305Z,3.40
2023-02-09T11:45:35.321Z,3.20
2023-02-09T11:48:09.156Z,3.20
2023-02-09T11:50:56.566Z,3.10
2023-02-09T11:53:41.953Z,3.00
2023-02-09T11:56:10.072Z,2.90
2023-02-09T11:58:40.563Z,2.80
2023-02-09T12:01:22.308Z,2.80
2023-02-09T12:04:09.215Z,2.80
2023-02-09T12:06:38.767Z,2.80
2023-02-09T12:09:17.068Z,3.00
2023-02-09T12:11:49.374Z,3.20
2023-02-09T12:14:23.225Z,3.40
2023-02-09T12:17:40.621Z,3.60
2023-02-09T12:20:42.769Z,3.80
2023-02-09T12:23:26.300Z,3.90
2023-02-09T12:26:00.558Z,4.00
2023-02-09T12:28:27.213Z,4.00
2023-02-09T12:30:53.852Z,3.90
2023-02-09T12:33:23.424Z,3.90
2023-02-09T12:36:10.286Z,3.70
2023-02-09T12:38:56.179Z,3.50
2023-02-09T12:41:40.036Z,3.60
2023-02-09T12:44:10.600Z,3.60
2023-02-09T12:46:52.839Z,3.80
2023-02-09T12:49:21.447Z,3.80
2023-02-09T12:51:54.297Z,4.00
2023-02-09T12:54:42.919Z,3.90
2023-02-09T12:57:15.771Z,3.70
2023-02-09T12:59:52.521Z,3.60
2023-02-09T13:02:44.732Z,3.50
2023-02-09T13:05:18.257Z,3.40
2023-02-09T13:07:50.033Z,3.60
2023-02-09T13:10:43.611Z,3.70
2023-02-09T13:13:13.190Z,3.90
2023-02-09T13:16:03.715Z,3.90
2023-02-09T13:18:48.478Z,4.00
2023-02-09T13:21:28.026Z,4.10
2023-02-09T13:24:07.476Z,4.10
2023-02-09T13:26:47.236Z,4.10
2023-02-09T13:29:21.276Z,4.10
2023-02-09T13:32:15.626Z,4.00
2023-02-09T13:35:01.392Z,4.10
2023-02-09T13:37:39.962Z,3.90
2023-02-09T13:40:15.409Z,3.90
2023-02-09T13:43:12.295Z,3.90
2023-02-09T13:45:49.597Z,4.00
2023-02-09T13:48:24.822Z,4.20
2023-02-09T13:50:52.375Z,4.20
2023-02-09T13:53:19.936Z,4.20
2023-02-09T13:55:47.694Z,4.00
2023-02-09T13:58:32.206Z,3.90
2023-02-09T14:01:02.647Z,3.90
2023-02-09T14:03:36.201Z,3.90
2023-02-09T14:06:18.013Z,4.00
2023-02-09T14:08:44.741Z,3.90
2023-02-09T14:11:21.869Z,3.90
2023-02-09T14:13:51.349Z,3.80
2023-02-09T14:16:18.701Z,3.80
2023-02-09T14:18:49.141Z,3.80
2023-02-09T14:21:37.670Z,3.80
2023-02-09T14:24:25.405Z,4.00
2023-02-09T14:27:05.020Z,4.00
2023-02-09T14:29:33.095Z,3.90
2023-02-09T14:32:32.938Z,3.70
2023-02-09T14:35:29.524Z,3.60
2023-02-09T14:37:57.721Z,3.60
2023-02-09T14:40:27.633Z,3.60
2023-02-09T14:43:02.693Z,3.60
2023-02-09T14:45:37.682Z,3.60
2023-02-09T14:48:23.457Z,3.60
2023-02-09T14:50:51.104Z,3.50
2023-02-09T14:53:17.759Z,3.20
2023-02-09T14:55:45.156Z,3.10
2023-02-09T14:58:26.493Z,3.10
2023-02-09T15:00:54.352Z,3.00
2023-02-09T15:03:21.127Z,3.00
2023-02-09T15:05:48.724Z,3.00
2023-02-09T15:08:17.487Z,2.90
2023-02-09T15:10:45.609Z,2.90
2023-02-09T15:13:13.039Z,2.80
2023-02-09T15:15:39.838Z,2.80
2023-02-09T15:18:06.663Z,2.70
2023-02-09T15:20:33.529Z,2.70
2023-02-09T15:23:00.809Z,2.60
2023-02-09T15:25:27.829Z,2.60
2023-02-09T15:27:59.025Z,2.60
2023-02-09T15:30:34.867Z,2.50
2023-02-09T15:33:01.825Z,2.50
2023-02-09T15:35:28.795Z,2.40
2023-02-09T15:37:57.487Z,2.30
2023-02-09T15:40:52.256Z,2.20
2023-02-09T15:43:38.114Z,2.10
2023-02-09T15:46:23.821Z,2.10
2023-02-09T15:48:50.528Z,2.00
2023-02-09T15:51:17.230Z,1.90
2023-02-09T15:53:43.877Z,1.90
2023-02-09T15:56:10.705Z,1.90
2023-02-09T15:58:39.559Z,1.70
2023-02-09T16:01:06.601Z,1.70
2023-02-09T16:03:33.347Z,1.60
2023-02-09T16:06:02.109Z,1.60
2023-02-09T16:08:33.097Z,1.50
2023-02-09T16:11:00.500Z,1.50
2023-02-09T16:13:27.127Z,1.50
2023-02-09T16:15:54.670Z,1.50
2023-02-09T16:18:23.532Z,1.50
2023-02-09T16:20:50.608Z,1.50
2023-02-09T16:23:21.168Z,1.50
2023-02-09T16:25:51.793Z,1.40
2023-02-09T16:28:18.879Z,1.50
2023-02-09T16:30:53.722Z,1.40
2023-02-09T16:33:20.920Z,1.40
2023-02-09T16:35:57.599Z,1.40
2023-02-09T16:38:24.579Z,1.40
2023-02-09T16:40:51.874Z,1.40
2023-02-09T16:43:18.728Z,1.40
2023-02-09T16:45:57.444Z,1.40
2023-02-09T16:48:29.364Z,1.40
2023-02-09T16:50:56.356Z,1.30
2023-02-09T16:53:35.268Z,1.30
2023-02-09T16:56:04.958Z,1.30
2023-02-09T16:58:31.653Z,1.40
2023-02-09T17:00:58.371Z,1.40
2023-02-09T17:03:42.585Z,1.30
2023-02-09T17:06:18.388Z,1.30
2023-02-09T17:08:45.424Z,1.30
2023-02-09T17:11:16.940Z,1.40
2023-02-09T17:13:44.141Z,1.30
2023-02-09T17:16:17.959Z,1.20
2023-02-09T17:18:44.705Z,1.20
2023-02-09T17:21:25.356Z,1.20
2023-02-09T17:23:52.212Z,1.20
2023-02-09T17:26:19.111Z,1.20
2023-02-09T17:28:46.031Z,1.20
2023-02-09T17:31:12.930Z,1.10
2023-02-09T17:33:39.556Z,1.00
2023-02-09T17:38:53.383Z,0.90
2023-02-09T17:41:21.484Z,0.80
2023-02-09T17:43:48.409Z,0.80
2023-02-09T17:46:17.182Z,0.70
2023-02-09T17:48:43.902Z,0.70
2023-02-09T17:51:21.317Z,0.70
2023-02-09T17:53:48.793Z,0.70
2023-02-09T17:56:16.794Z,0.60
2023-02-09T17:58:44.591Z,0.50
2023-02-09T18:01:27.272Z,0.60
2023-02-09T18:03:58.807Z,0.60
2023-02-09T18:06:38.849Z,0.50
2023-02-09T18:09:07.290Z,0.50
2023-02-09T18:11:52.208Z,0.50
2023-02-09T18:14:19.690Z,0.50
2023-02-09T18:16:47.761Z,0.50
2023-02-09T18:19:15.772Z,0.40
2023-02-09T18:21:51.163Z,0.40
2023-02-09T18:24:18.280Z,0.40
2023-02-09T18:26:46.830Z,0.40
2023-02-09T18:29:13.825Z,0.40
2023-02-09T18:31:40.645Z,0.30
2023-02-09T18:34:07.868Z,0.30
2023-02-09T18:36:34.548Z,0.30
2023-02-09T18:39:01.172Z,0.30
2023-02-09T18:41:27.855Z,0.20
2023-02-09T18:43:54.678Z,0.10
2023-02-09T18:46:26.937Z,0.20
2023-02-09T18:48:54.567Z,0.10
2023-02-09T18:51:21.467Z,0.10
2023-02-09T18:53:51.346Z,0.10
2023-02-09T18:56:21.774Z,0.20
2023-02-09T18:58:51.693Z,0.20
2023-02-09T19:01:24.455Z,0.10
2023-02-09T19:03:54.209Z,0.10
2023-02-09T19:06:21.496Z,0.10
2023-02-09T19:08:50.087Z,0.00
2023-02-09T19:11:17.748Z,0.00
2023-02-09T19:14:04.617Z,0.00
2023-02-09T19:16:31.261Z,-0.10
2023-02-09T19:18:58.392Z,-0.10
2023-02-09T19:21:25.322Z,-0.20
2023-02-09T19:23:51.997Z,-0.30
2023-02-09T19:26:18.681Z,-0.30
2023-02-09T19:28:45.311Z,-0.30
2023-02-09T19:31:16.226Z,-0.30
2023-02-09T19:33:42.923Z,-0.30
2023-02-09T19:36:09.935Z,-0.30
2023-02-09T19:38:36.568Z,-0.30
2023-02-09T19:41:11.759Z,-0.30
2023-02-09T19:43:41.733Z,-0.40
2023-02-09T19:46:09.885Z,-0.40
2023-02-09T19:48:38.358Z,-0.40
2023-02-09T19:51:05.103Z,-0.50
2023-02-09T19:53:31.749Z,-0.50
2023-02-09T19:55:58.379Z,-0.50
2023-02-09T19:58:25.026Z,-0.50
2023-02-09T20:00:51.931Z,-0.50
2023-02-09T20:03:18.826Z,-0.50
2023-02-09T20:05:46.025Z,-0.60
2023-02-09T20:08:14.129Z,-0.70
2023-02-09T20:10:40.793Z,-0.70
2023-02-09T20:13:08.465Z,-0.70
2023-02-09T20:15:35.110Z,-0.70
2023-02-09T20:18:01.761Z,-0.70
2023-02-09T20:20:28.673Z,-0.80
2023-02-09T20:22:55.298Z,-0.80
2023-02-09T20:25:22.063Z,-0.80
2023-02-09T20:27:49.987Z,-0.80
2023-02-09T20:30:16.802Z,-0.80
2023-02-09T20:32:43.600Z,-0.80
2023-02-09T20:35:10.712Z,-0.80
2023-02-09T20:37:37.389Z,-0.80
2023-02-09T20:40:04.339Z,-0.80
2023-02-09T20:42:49.444Z,-0.70
2023-02-09T20:45:35.293Z,-0.70
2023-02-09T20:48:01.962Z,-0.70
2023-02-09T20:50:28.622Z,-0.80
2023-02-09T20:52:55.280Z,-0.80
2023-02-09T20:55:22.635Z,-0.80
2023-02-09T20:57:49.353Z,-0.70
2023-02-09T21:00:16.261Z,-0.70
2023-02-09T21:02:42.932Z,-0.80
2023-02-09T21:05:09.584Z,-0.80
2023-02-09T21:07:36.339Z,-0.80
2023-02-09T21:10:03.282Z,-0.80
2023-02-09T21:12:29.907Z,-0.80
2023-02-09T21:14:56.549Z,-0.70
2023-02-09T21:17:23.601Z,-0.70
2023-02-09T21:19:50.257Z,-0.80
2023-02-09T21:22:17.016Z,-0.70
2023-02-09T21:24:44.060Z,-0.70
2023-02-09T21:27:10.711Z,-0.70
2023-02-09T21:29:37.654Z,-0.60
2023-02-09T21:32:05.229Z,-0.50
2023-02-09T21:34:31.934Z,-0.40
2023-02-09T21:36:58.550Z,-0.40
2023-02-09T21:39:25.157Z,-0.30
2023-02-09T21:42:10.443Z,-0.30
2023-02-09T21:44:37.412Z,-0.20
2023-02-09T21:47:04.181Z,-0.20
2023-02-09T21:49:31.862Z,-0.20
2023-02-09T21:51:59.009Z,-0.20
2023-02-09T21:54:27.470Z,-0.10
2023-02-09T21:56:54.726Z,-0.10
2023-02-09T21:59:21.344Z,-0.10
2023-02-09T22:01:47.948Z,-0.10
2023-02-09T22:04:14.670Z,0.00
2023-02-09T22:06:41.723Z,-0.10
2023-02-09T22:09:08.440Z,-0.10
2023-02-09T22:11:35.044Z,-0.10
2023-02-09T22:14:01.700Z,-0.10
2023-02-09T22:16:29.377Z,0.10
2023-02-09T22:18:56.250Z,0.10
2023-02-09T22:21:23.158Z,0.10
2023-02-09T22:23:51.036Z,0.10
2023-02-09T22:26:17.920Z,0.20
2023-02-09T22:28:44.862Z,0.20
2023-02-09T22:31:13.778Z,0.20
2023-02-09T22:33:40.704Z,0.20
2023-02-09T22:36:08.928Z,0.30
2023-02-09T22:38:35.811Z,0.30
2023-02-09T22:41:07.339Z,0.30
2023-02-09T22:43:34.516Z,0.30
2023-02-09T22:46:01.479Z,0.30
2023-02-09T22:48:28.152Z,0.30
2023-02-09T22:50:54.769Z,0.30
2023-02-09T22:53:21.407Z,0.30
2023-02-09T22:55:49.383Z,0.30
2023-02-09T22:58:16.175Z,0.30
2023-02-09T23:00:42.808Z,0.30
2023-02-09T23:03:09.461Z,0.30
2023-02-09T23:05:36.104Z,0.40
2023-02-09T23:08:02.796Z,0.30
2023-02-09T23:10:29.415Z,0.40
2023-02-09T23:12:56.020Z,0.30
2023-02-09T23:15:22.639Z,0.30
2023-02-09T23:17:49.260Z,0.40
2023-02-09T23:20:15.938Z,0.30
2023-02-09T23:22:42.534Z,0.30
2023-02-09T23:25:09.140Z,0.40
2023-02-09T23:27:35.753Z,0.30
2023-02-09T23:30:02.383Z,0.40
2023-02-09T23:32:29.013Z,0.30
2023-02-09T23:34:55.650Z,0.40
2023-02-09T23:37:36.791Z,0.30
2023-02-09T23:40:04.172Z,0.40
2023-02-09T23:42:30.779Z,0.30
2023-02-09T23:44:57.445Z,0.30
2023-02-09T23:47:24.057Z,0.30
2023-02-09T23:49:50.742Z,0.40
2023-02-09T23:52:17.346Z,0.30
2023-02-09T23:54:44.026Z,0.40
2023-02-09T23:57:10.653Z,0.40
2023-02-09T23:59:37.301Z,0.40
